Time;durP1;ratioP1;P1;durP2;ratioP2;P2;SDS_P1;SDS_P2;PMS_P1;PMS_P2;Temp;Humidity;BMP_temperature;BMP_pressure;BME280_temperature;BME280_humidity;BME280_pressure;Samples;Min_cycle;Max_cycle;Signal;HPM_P1;HPM_P2
2023/07/09 00:00:49;;;;;;;;;;;16.50;99.90;;;;;;5007823;28;19939;-71
2023/07/09 00:03:15;;;;;;;;;;;16.50;99.90;;;;;;5003368;28;20560;-71
2023/07/09 00:05:41;;;;;;;;;;;16.50;99.90;;;;;;4999959;28;20364;-64
2023/07/09 00:08:17;;;;;;;;;;;16.50;99.90;;;;;;5004378;28;19998;-65
2023/07/09 00:10:43;;;;;;;;;;;16.50;99.90;;;;;;5005320;28;20036;-64
2023/07/09 00:13:08;;;;;;;;;;;16.50;99.90;;;;;;5006441;28;19926;-64
2023/07/09 00:15:34;;;;;;;;;;;16.40;99.90;;;;;;5006817;28;19995;-64
2023/07/09 00:18:00;;;;;;;;;;;16.40;99.90;;;;;;5005286;28;20016;-64
2023/07/09 00:20:25;;;;;;;;;;;16.40;99.90;;;;;;4990800;28;20605;-64
2023/07/09 00:22:54;;;;;;;;;;;16.40;99.90;;;;;;5004500;28;19929;-64
2023/07/09 00:25:20;;;;;;;;;;;16.40;99.90;;;;;;5009447;28;20033;-71
2023/07/09 00:27:48;;;;;;;;;;;16.40;99.90;;;;;;5004220;28;19978;-71
2023/07/09 00:30:18;;;;;;;;;;;16.40;99.90;;;;;;5003401;28;19938;-71
2023/07/09 00:32:44;;;;;;;;;;;16.40;99.90;;;;;;5008486;28;20850;-71
2023/07/09 00:35:15;;;;;;;;;;;16.30;99.90;;;;;;5004319;28;20611;-71
2023/07/09 00:37:41;;;;;;;;;;;16.30;99.90;;;;;;5004637;28;19932;-71
2023/07/09 00:40:10;;;;;;;;;;;16.20;99.90;;;;;;4991419;28;20015;-71
2023/07/09 00:42:35;;;;;;;;;;;16.20;99.90;;;;;;5008231;28;20043;-71
2023/07/09 00:45:01;;;;;;;;;;;16.20;99.90;;;;;;5006680;28;19930;-71
2023/07/09 00:47:30;;;;;;;;;;;16.20;99.90;;;;;;5005177;28;20028;-71
2023/07/09 00:50:01;;;;;;;;;;;16.30;99.90;;;;;;5007891;28;19984;-70
2023/07/09 00:52:33;;;;;;;;;;;16.20;99.90;;;;;;5006766;28;20422;-71
2023/07/09 00:55:00;;;;;;;;;;;16.20;99.90;;;;;;5008100;28;19970;-71
2023/07/09 00:57:26;;;;;;;;;;;16.10;99.90;;;;;;5001960;28;19933;-71
2023/07/09 00:59:54;;;;;;;;;;;16.20;99.90;;;;;;5003504;28;19952;-64
2023/07/09 01:02:23;;;;;;;;;;;16.20;99.90;;;;;;4999306;28;20386;-64
2023/07/09 01:04:55;;;;;;;;;;;16.20;99.90;;;;;;5006012;28;19939;-64
2023/07/09 01:07:21;;;;;;;;;;;16.20;99.90;;;;;;5006762;28;19926;-64
2023/07/09 01:09:47;;;;;;;;;;;16.20;99.90;;;;;;5007825;28;19973;-64
2023/07/09 01:12:13;;;;;;;;;;;16.20;99.90;;;;;;5000431;28;19982;-64
2023/07/09 01:14:39;;;;;;;;;;;16.20;99.90;;;;;;5009416;28;19936;-64
2023/07/09 01:17:07;;;;;;;;;;;16.30;99.90;;;;;;5002528;28;19927;-64
2023/07/09 01:19:42;;;;;;;;;;;16.30;99.90;;;;;;5003223;28;19985;-71
2023/07/09 01:22:11;;;;;;;;;;;16.30;99.90;;;;;;5006692;28;20018;-71
2023/07/09 01:25:06;;;;;;;;;;;16.30;99.90;;;;;;5004821;28;19932;-71
2023/07/09 01:27:33;;;;;;;;;;;16.30;99.90;;;;;;4991133;28;19934;-71
2023/07/09 01:30:00;;;;;;;;;;;16.30;99.90;;;;;;5004331;28;19941;-71
2023/07/09 01:32:25;;;;;;;;;;;16.30;99.90;;;;;;5005183;28;19941;-71
2023/07/09 01:34:53;;;;;;;;;;;16.30;99.90;;;;;;5004815;28;20610;-71
2023/07/09 01:37:21;;;;;;;;;;;16.30;99.90;;;;;;5005872;28;19939;-71
2023/07/09 01:39:47;;;;;;;;;;;16.30;99.90;;;;;;4989085;28;19958;-71
2023/07/09 01:42:13;;;;;;;;;;;16.40;99.90;;;;;;5007283;28;19951;-71
2023/07/09 01:44:40;;;;;;;;;;;16.30;99.90;;;;;;5009549;28;20145;-71
2023/07/09 01:47:05;;;;;;;;;;;16.30;99.90;;;;;;5002972;28;19962;-71
2023/07/09 01:49:32;;;;;;;;;;;16.20;99.90;;;;;;5003479;28;20126;-72
2023/07/09 01:52:01;;;;;;;;;;;16.20;99.90;;;;;;5003794;28;19938;-71
2023/07/09 01:54:31;;;;;;;;;;;16.20;99.90;;;;;;4997383;28;19929;-71
2023/07/09 01:57:13;;;;;;;;;;;16.10;99.90;;;;;;5003181;28;19950;-64
2023/07/09 01:59:41;;;;;;;;;;;16.00;99.90;;;;;;5003542;28;20465;-64
2023/07/09 02:02:07;;;;;;;;;;;16.00;99.90;;;;;;5002893;28;19941;-64
2023/07/09 02:04:32;;;;;;;;;;;16.10;99.90;;;;;;5003157;28;19938;-64
2023/07/09 02:06:58;;;;;;;;;;;16.10;99.90;;;;;;4997093;28;20991;-64
2023/07/09 02:09:23;;;;;;;;;;;16.20;99.90;;;;;;5001258;28;19931;-64
2023/07/09 02:11:49;;;;;;;;;;;16.20;99.90;;;;;;5004152;28;20044;-64
2023/07/09 02:14:14;;;;;;;;;;;16.20;99.90;;;;;;5006971;28;20157;-71
2023/07/09 02:16:40;;;;;;;;;;;16.10;99.90;;;;;;5003422;28;19934;-71
2023/07/09 02:19:05;;;;;;;;;;;16.10;99.90;;;;;;5003014;28;20022;-71
2023/07/09 02:21:31;;;;;;;;;;;16.10;99.90;;;;;;5002812;28;22003;-71
2023/07/09 02:23:56;;;;;;;;;;;16.10;99.90;;;;;;5001604;28;19939;-71
2023/07/09 02:26:22;;;;;;;;;;;16.10;99.90;;;;;;5003167;28;20401;-72
2023/07/09 02:28:47;;;;;;;;;;;16.10;99.90;;;;;;5003797;28;20291;-71
2023/07/09 02:31:15;;;;;;;;;;;16.00;99.90;;;;;;5005204;28;20072;-71
2023/07/09 02:33:41;;;;;;;;;;;16.10;99.90;;;;;;5001642;28;19949;-64
2023/07/09 02:36:06;;;;;;;;;;;16.00;99.90;;;;;;5005098;28;21186;-64
2023/07/09 02:38:32;;;;;;;;;;;15.90;99.90;;;;;;5005066;28;19927;-64
2023/07/09 02:40:57;;;;;;;;;;;15.90;99.90;;;;;;5005787;28;19932;-64
2023/07/09 02:43:23;;;;;;;;;;;16.00;99.90;;;;;;5007769;28;19929;-64
2023/07/09 02:45:48;;;;;;;;;;;15.90;99.90;;;;;;5004926;28;20500;-64
2023/07/09 02:48:13;;;;;;;;;;;16.00;99.90;;;;;;5006343;28;20131;-64
2023/07/09 02:50:39;;;;;;;;;;;15.90;99.90;;;;;;5002928;28;20606;-64
2023/07/09 02:53:05;;;;;;;;;;;15.90;99.90;;;;;;5006931;28;19929;-64
2023/07/09 02:55:30;;;;;;;;;;;15.80;99.90;;;;;;5008137;28;19972;-64
2023/07/09 02:57:56;;;;;;;;;;;15.80;99.90;;;;;;5008849;28;19934;-64
2023/07/09 03:00:21;;;;;;;;;;;15.80;99.90;;;;;;5008126;28;20378;-64
2023/07/09 03:02:47;;;;;;;;;;;15.80;99.90;;;;;;5005073;28;20371;-64
2023/07/09 03:05:12;;;;;;;;;;;15.80;99.90;;;;;;5003734;28;19939;-64
2023/07/09 03:07:38;;;;;;;;;;;15.80;99.90;;;;;;5006365;28;19935;-64
2023/07/09 03:10:03;;;;;;;;;;;15.80;99.90;;;;;;5006769;28;20498;-64
2023/07/09 03:12:29;;;;;;;;;;;15.70;99.90;;;;;;5000230;28;20554;-64
2023/07/09 03:14:54;;;;;;;;;;;15.70;99.90;;;;;;5002780;28;19936;-64
2023/07/09 03:17:20;;;;;;;;;;;15.60;99.90;;;;;;5005871;28;20265;-64
2023/07/09 03:19:45;;;;;;;;;;;15.60;99.90;;;;;;5007536;28;19974;-64
2023/07/09 03:22:11;;;;;;;;;;;15.70;99.90;;;;;;5003735;28;20058;-64
2023/07/09 03:24:36;;;;;;;;;;;15.70;99.90;;;;;;5007706;28;19937;-64
2023/07/09 03:27:02;;;;;;;;;;;15.70;99.90;;;;;;5008497;28;20892;-64
2023/07/09 03:29:27;;;;;;;;;;;15.70;99.90;;;;;;5005377;28;19925;-64
2023/07/09 03:31:53;;;;;;;;;;;15.70;99.90;;;;;;5005724;28;19928;-64
2023/07/09 03:34:18;;;;;;;;;;;15.70;99.90;;;;;;5003120;28;19949;-64
2023/07/09 03:36:44;;;;;;;;;;;15.70;99.90;;;;;;4992992;28;19934;-64
2023/07/09 03:39:10;;;;;;;;;;;15.70;99.90;;;;;;5000905;28;20524;-64
2023/07/09 03:41:35;;;;;;;;;;;15.70;99.90;;;;;;5008427;28;19929;-65
2023/07/09 03:44:01;;;;;;;;;;;15.80;99.90;;;;;;5006934;28;20579;-64
2023/07/09 03:46:27;;;;;;;;;;;15.90;99.90;;;;;;5007114;28;20290;-71
2023/07/09 03:48:52;;;;;;;;;;;15.90;99.90;;;;;;5001898;28;20032;-71
2023/07/09 03:51:18;;;;;;;;;;;15.90;99.90;;;;;;5007624;28;20088;-71
2023/07/09 03:53:43;;;;;;;;;;;15.90;99.90;;;;;;5004480;28;20350;-71
2023/07/09 03:56:09;;;;;;;;;;;15.90;99.90;;;;;;5008826;28;19958;-71
2023/07/09 03:58:34;;;;;;;;;;;15.90;99.90;;;;;;5005833;28;19924;-72
2023/07/09 04:01:00;;;;;;;;;;;15.90;99.90;;;;;;5002377;28;19941;-71
2023/07/09 04:03:25;;;;;;;;;;;15.90;99.90;;;;;;5004448;28;19937;-71
2023/07/09 04:05:51;;;;;;;;;;;15.90;99.90;;;;;;5003984;28;19926;-71
2023/07/09 04:08:17;;;;;;;;;;;16.00;99.90;;;;;;5006457;28;20027;-71
2023/07/09 04:10:42;;;;;;;;;;;16.10;99.90;;;;;;5005665;28;19942;-71
2023/07/09 04:13:08;;;;;;;;;;;16.10;99.90;;;;;;5008293;28;20416;-70
2023/07/09 04:15:33;;;;;;;;;;;16.10;99.90;;;;;;5002934;28;19971;-71
2023/07/09 04:17:58;;;;;;;;;;;16.10;99.90;;;;;;5003469;28;20033;-71
2023/07/09 04:20:24;;;;;;;;;;;16.20;99.90;;;;;;4989676;28;19970;-71
2023/07/09 04:22:50;;;;;;;;;;;16.20;99.90;;;;;;5004487;28;19930;-71
2023/07/09 04:25:15;;;;;;;;;;;16.20;99.90;;;;;;5004904;28;19933;-71
2023/07/09 04:27:41;;;;;;;;;;;16.20;99.90;;;;;;5007739;28;20298;-71
2023/07/09 04:30:11;;;;;;;;;;;16.20;99.90;;;;;;5002828;28;19986;-71
2023/07/09 04:32:37;;;;;;;;;;;16.20;99.90;;;;;;5004689;28;19938;-71
2023/07/09 04:35:05;;;;;;;;;;;16.30;99.90;;;;;;4994617;28;19956;-71
2023/07/09 04:37:31;;;;;;;;;;;16.30;99.90;;;;;;5005071;28;19937;-71
2023/07/09 04:39:56;;;;;;;;;;;16.40;99.90;;;;;;5002654;28;19952;-64
2023/07/09 04:42:22;;;;;;;;;;;16.40;99.90;;;;;;5005054;28;19942;-72
2023/07/09 04:44:47;;;;;;;;;;;16.60;99.90;;;;;;5006112;28;20318;-72
2023/07/09 04:47:13;;;;;;;;;;;16.70;99.90;;;;;;5004719;28;19964;-72
2023/07/09 04:49:38;;;;;;;;;;;16.90;99.90;;;;;;4990257;28;20065;-72
2023/07/09 04:52:04;;;;;;;;;;;17.00;99.90;;;;;;5005478;28;19938;-71
2023/07/09 04:54:30;;;;;;;;;;;17.20;99.90;;;;;;5008873;28;19928;-73
2023/07/09 04:56:56;;;;;;;;;;;17.30;99.90;;;;;;5001004;28;20405;-73
2023/07/09 04:59:21;;;;;;;;;;;17.50;99.90;;;;;;5008201;28;20652;-73
2023/07/09 05:01:47;;;;;;;;;;;17.60;99.90;;;;;;5001944;28;19934;-73
2023/07/09 05:04:13;;;;;;;;;;;17.90;99.90;;;;;;4999971;28;20411;-73
2023/07/09 05:06:38;;;;;;;;;;;18.00;99.90;;;;;;5001610;28;19950;-73
2023/07/09 05:09:04;;;;;;;;;;;18.10;99.90;;;;;;4998415;28;20591;-73
2023/07/09 05:11:31;;;;;;;;;;;18.20;99.90;;;;;;5004161;28;19930;-73
2023/07/09 05:13:56;;;;;;;;;;;18.30;99.90;;;;;;5000844;28;19936;-73
2023/07/09 05:16:22;;;;;;;;;;;18.40;99.90;;;;;;5003360;28;19926;-73
2023/07/09 05:18:47;;;;;;;;;;;18.60;99.90;;;;;;5004289;28;19999;-73
2023/07/09 05:21:13;;;;;;;;;;;18.70;99.90;;;;;;5002263;28;20412;-73
2023/07/09 05:23:38;;;;;;;;;;;18.80;99.90;;;;;;5004607;28;20770;-73
2023/07/09 05:26:04;;;;;;;;;;;19.00;99.90;;;;;;5007263;28;19934;-72
2023/07/09 05:28:30;;;;;;;;;;;19.10;99.90;;;;;;5004907;28;20067;-73
2023/07/09 05:30:55;;;;;;;;;;;19.20;99.90;;;;;;5004302;28;19928;-73
2023/07/09 05:33:21;;;;;;;;;;;19.30;99.90;;;;;;5004875;28;20640;-73
2023/07/09 05:35:47;;;;;;;;;;;19.40;99.90;;;;;;5004351;28;20039;-73
2023/07/09 05:38:13;;;;;;;;;;;19.60;99.90;;;;;;5004663;28;20401;-66
2023/07/09 05:40:39;;;;;;;;;;;19.70;99.90;;;;;;5003912;28;19954;-66
2023/07/09 05:43:05;;;;;;;;;;;19.80;99.90;;;;;;5006538;28;19935;-66
2023/07/09 05:45:31;;;;;;;;;;;19.90;99.90;;;;;;5000041;28;19939;-66
2023/07/09 05:47:57;;;;;;;;;;;20.20;99.90;;;;;;4990269;28;20589;-70
2023/07/09 05:50:23;;;;;;;;;;;20.30;99.90;;;;;;4985886;28;21698;-66
2023/07/09 05:52:48;;;;;;;;;;;20.40;99.90;;;;;;4986464;28;19944;-66
2023/07/09 05:55:14;;;;;;;;;;;20.60;99.90;;;;;;4984776;28;19943;-66
2023/07/09 05:57:39;;;;;;;;;;;20.60;99.90;;;;;;4985561;28;19930;-66
2023/07/09 06:00:07;;;;;;;;;;;20.70;99.90;;;;;;4984701;28;20002;-66
2023/07/09 06:02:32;;;;;;;;;;;20.80;99.90;;;;;;4982007;28;20116;-66
2023/07/09 06:04:58;;;;;;;;;;;21.00;99.90;;;;;;4986632;28;20878;-66
2023/07/09 06:07:23;;;;;;;;;;;21.10;99.90;;;;;;4966438;28;19932;-66
2023/07/09 06:09:49;;;;;;;;;;;21.10;99.90;;;;;;4985082;28;19928;-66
2023/07/09 06:12:14;;;;;;;;;;;21.20;99.90;;;;;;4987031;28;20740;-72
2023/07/09 06:14:40;;;;;;;;;;;21.30;99.90;;;;;;4988222;28;19925;-64
2023/07/09 06:17:06;;;;;;;;;;;21.50;99.90;;;;;;4984749;28;20373;-64
2023/07/09 06:19:31;;;;;;;;;;;21.60;99.90;;;;;;4989353;28;19960;-64
2023/07/09 06:21:57;;;;;;;;;;;21.70;99.90;;;;;;4985389;28;20475;-66
2023/07/09 06:24:23;;;;;;;;;;;21.70;99.90;;;;;;4962994;28;20286;-66
2023/07/09 06:26:49;;;;;;;;;;;21.80;99.90;;;;;;4987048;28;19930;-66
2023/07/09 06:29:14;;;;;;;;;;;21.90;99.90;;;;;;4989097;28;19932;-66
2023/07/09 06:31:42;;;;;;;;;;;22.10;99.90;;;;;;4971033;28;20337;-72
2023/07/09 06:34:09;;;;;;;;;;;22.30;99.90;;;;;;4984570;28;19950;-72
2023/07/09 06:36:35;;;;;;;;;;;22.50;99.90;;;;;;4984472;28;20458;-72
2023/07/09 06:39:00;;;;;;;;;;;22.50;99.90;;;;;;4987649;28;20055;-72
2023/07/09 06:41:25;;;;;;;;;;;22.60;99.90;;;;;;4986174;28;20058;-72
2023/07/09 06:43:51;;;;;;;;;;;22.60;99.90;;;;;;4987333;28;19944;-72
2023/07/09 06:46:18;;;;;;;;;;;22.70;99.90;;;;;;4987162;28;20233;-71
2023/07/09 06:48:44;;;;;;;;;;;22.80;99.90;;;;;;5008057;28;20044;-64
2023/07/09 06:51:09;;;;;;;;;;;22.90;99.90;;;;;;5006373;28;19967;-65
2023/07/09 06:53:36;;;;;;;;;;;23.10;99.90;;;;;;5006582;28;20270;-65
2023/07/09 06:56:02;;;;;;;;;;;23.30;99.90;;;;;;5000498;28;20008;-65
2023/07/09 06:58:31;;;;;;;;;;;23.50;99.90;;;;;;5002487;28;21236;-65
2023/07/09 07:00:57;;;;;;;35.28;3.65;;;23.60;99.90;;;;;;5002050;28;19939;-69
2023/07/09 07:03:23;;;;;;;4.63;2.40;;;23.80;99.90;;;;;;5002203;28;20394;-68
2023/07/09 07:05:50;;;;;;;3.25;2.08;;;23.80;99.90;;;;;;5007244;28;20167;-68
2023/07/09 07:08:18;;;;;;;3.35;2.47;;;23.80;99.90;;;;;;4988208;28;20100;-68
2023/07/09 07:10:46;;;;;;;4.53;2.58;;;24.00;99.90;;;;;;5001639;28;20037;-68
2023/07/09 07:13:12;;;;;;;5.68;2.50;;;24.00;99.90;;;;;;4997040;28;20546;-68
2023/07/09 07:15:38;;;;;;;2.72;2.53;;;24.00;99.90;;;;;;4999308;28;20037;-68
2023/07/09 07:18:04;;;;;;;3.08;2.08;;;24.20;99.90;;;;;;5002078;28;20041;-68
2023/07/09 07:20:31;;;;;;;3.42;2.60;;;24.40;99.90;;;;;;5005417;28;20045;-68
2023/07/09 07:22:57;;;;;;;3.17;2.30;;;24.60;99.90;;;;;;5004008;28;22226;-68
2023/07/09 07:25:23;;;;;;;2.85;2.33;;;24.70;99.90;;;;;;5005514;28;20483;-74
2023/07/09 07:27:49;;;;;;;2.30;1.95;;;24.80;99.90;;;;;;4996678;28;20494;-71
2023/07/09 07:30:16;;;;;;;6.05;2.30;;;24.90;99.90;;;;;;5005569;28;20152;-73
2023/07/09 07:32:47;;;;;;;8.30;2.55;;;25.10;99.90;;;;;;5003695;28;20037;-74
2023/07/09 07:35:13;;;;;;;9.80;2.38;;;25.20;99.90;;;;;;5006451;28;20102;-74
2023/07/09 07:37:40;;;;;;;20.90;3.35;;;;;;;;;;5009849;28;20131;-74
2023/07/09 07:40:08;;;;;;;4.55;2.55;;;;;;;;;;4994863;28;22541;-73
2023/07/09 07:42:36;;;;;;;4.03;2.28;;;;;;;;;;5007750;28;20776;-72
2023/07/09 07:45:03;;;;;;;4.85;1.92;;;;;;;;;;5008813;28;20049;-75
2023/07/09 07:47:33;;;;;;;5.65;2.58;;;;;;;;;;4991227;28;20553;-76
2023/07/09 07:50:02;;;;;;;4.03;2.25;;;;;;;;;;5001244;28;20050;-77
2023/07/09 07:52:32;;;;;;;2.55;2.15;;;;;;;;;;5008889;28;20087;-75
2023/07/09 07:55:01;;;;;;;5.90;2.38;;;;;;;;;;5003763;28;20600;-75
2023/07/09 07:57:28;;;;;;;7.22;2.00;;;;;;;;;;4985521;28;20429;-75
2023/07/09 07:59:54;;;;;;;13.55;2.28;;;;;;;;;;4998844;28;20381;-76
2023/07/09 08:02:21;;;;;;;6.72;2.25;;;;;;;;;;5005467;28;20052;-76
2023/07/09 08:04:47;;;;;;;2.75;2.40;;;;;;;;;;4984771;28;20033;-76
2023/07/09 08:07:13;;;;;;;3.00;2.30;;;;;;;;;;5000468;28;20045;-76
2023/07/09 08:09:39;;;;;;;8.30;2.10;;;;;;;;;;4994167;28;20030;-75
2023/07/09 08:12:11;;;;;;;5.95;2.63;;;;;;;;;;4982117;28;20068;-76
2023/07/09 08:14:37;;;;;;;4.13;2.25;;;;;;;;;;4985097;28;20438;-76
2023/07/09 08:17:03;;;;;;;2.05;1.90;;;;;;;;;;4996477;28;20048;-76
2023/07/09 08:19:29;;;;;;;3.08;2.08;;;;;;;;;;5001827;28;20054;-76
2023/07/09 08:21:55;;;;;;;2.00;1.80;;;;;;;;;;5008056;28;20048;-76
2023/07/09 08:24:21;;;;;;;5.18;2.00;;;;;;;;;;5001524;28;20100;-76
2023/07/09 08:26:47;;;;;;;2.80;1.90;;;;;;;;;;5001340;28;20648;-74
2023/07/09 08:29:13;;;;;;;2.58;1.80;;;;;;;;;;5004269;28;20045;-76
2023/07/09 08:31:41;;;;;;;5.68;2.00;;;;;;;;;;5001047;28;20038;-77
2023/07/09 08:34:08;;;;;;;2.83;1.95;;;;;;;;;;5007026;28;20033;-76
2023/07/09 08:36:34;;;;;;;2.60;1.70;;;;;;;;;;5005693;28;20034;-76
2023/07/09 08:39:03;;;;;;;2.10;1.90;;;;;;;;;;5006145;28;20033;-75
2023/07/09 08:41:29;;;;;;;2.60;1.75;;;;;;;;;;4998615;28;20048;-77
2023/07/09 08:44:14;;;;;;;1.85;1.75;;;;;;;;;;5003916;28;20046;-76
2023/07/09 08:46:55;;;;;;;4.10;1.90;;;;;;;;;;4998696;28;20129;-77
2023/07/09 08:49:23;;;;;;;2.10;1.83;;;;;;;;;;4996936;28;20049;-76
2023/07/09 08:51:51;;;;;;;3.10;2.00;;;;;;;;;;4997549;28;20049;-76
2023/07/09 08:54:36;;;;;;;3.35;1.50;;;;;;;;;;4996414;28;20920;-77
2023/07/09 08:57:10;;;;;;;4.07;1.85;;;;;;;;;;5002703;28;20484;-77
2023/07/09 08:59:37;;;;;;;2.40;1.73;;;;;;;;;;5003978;28;20073;-73
2023/07/09 09:02:04;;;;;;;4.47;2.00;;;;;;;;;;5002224;28;20029;-74
2023/07/09 09:04:31;;;;;;;2.75;2.10;;;;;;;;;;5004499;28;20051;-73
2023/07/09 09:07:21;;;;;;;6.57;1.80;;;;;;;;;;5001547;28;20095;-73
2023/07/09 09:09:47;;;;;;;4.20;1.80;;;;;;;;;;4997904;28;20048;-73
2023/07/09 09:12:21;;;;;;;1.83;1.70;;;;;;;;;;5004723;28;20025;-74
2023/07/09 09:14:53;;;;;;;2.28;1.58;;;;;;;;;;5006072;28;20110;-73
2023/07/09 09:17:21;;;;;;;1.70;1.48;;;;;;;;;;5000313;28;20286;-75
2023/07/09 09:19:46;;;;;;;1.90;1.65;;;;;;;;;;4979023;28;20200;-77
2023/07/09 09:22:15;;;;;;;5.80;2.35;;;;;;;;;;5004067;28;20078;-76
2023/07/09 09:24:54;;;;;;;1.70;1.60;;;;;;;;;;5003105;28;20816;-76
2023/07/09 09:27:20;;;;;;;3.45;1.55;;;;;;;;;;5004919;28;20160;-77
2023/07/09 09:29:46;;;;;;;9.75;2.03;;;;;;;;;;5008598;28;20041;-76
2023/07/09 09:32:29;;;;;;;1.67;1.50;;;;;;;;;;5003039;28;20514;-78
2023/07/09 09:34:55;;;;;;;2.00;1.60;;;;;;;;;;5006984;28;20056;-78
2023/07/09 09:37:29;;;;;;;1.90;1.80;;;;;;;;;;5003641;28;20459;-76
2023/07/09 09:39:55;;;;;;;4.53;2.28;;;;;;;;;;5004330;28;20060;-77
2023/07/09 09:42:24;;;;;;;1.92;1.63;;;;;;;;;;5003205;28;20044;-76
2023/07/09 09:44:49;;;;;;;2.58;1.60;;;;;;;;;;5008960;28;20509;-77
2023/07/09 09:47:16;;;;;;;4.30;1.67;;;;;;;;;;5000650;28;20126;-78
2023/07/09 09:49:42;;;;;;;3.78;1.55;;;;;;;;;;5003751;28;20042;-78
2023/07/09 09:52:13;;;;;;;1.80;1.70;;;;;;;;;;5003465;28;20049;-79
2023/07/09 09:54:41;;;;;;;2.63;1.73;;;;;;;;;;5001625;28;20042;-78
2023/07/09 09:57:17;;;;;;;3.63;2.10;;;;;;;;;;5004282;28;20030;-79
2023/07/09 09:59:43;;;;;;;2.42;1.88;;;;;;;;;;5006549;28;20173;-78
2023/07/09 10:02:17;;;;;;;1.65;1.42;;;;;;;;;;4997404;28;20168;-78
2023/07/09 10:04:44;;;;;;;4.95;2.00;;;;;;;;;;5007745;28;20052;-78
2023/07/09 10:07:13;;;;;;;4.80;1.65;;;;;;;;;;5004524;28;20041;-79
2023/07/09 10:09:39;;;;;;;3.10;2.10;;;;;;;;;;5002877;28;20053;-80
2023/07/09 10:12:15;;;;;;;2.05;1.80;;;;;;;;;;5003875;28;20529;-79
2023/07/09 10:14:48;;;;;;;2.83;2.00;;;;;;;;;;5004768;28;21988;-79
2023/07/09 10:17:32;;;;;;;3.55;1.70;;;;;;;;;;4998514;28;20810;-78
2023/07/09 10:20:10;;;;;;;2.13;1.80;;;;;;;;;;5002793;28;20065;-78
2023/07/09 10:22:50;;;;;;;6.38;1.48;;;;;;;;;;4997295;28;20116;-78
2023/07/09 10:25:38;;;;;;;2.30;2.05;;;;;;;;;;5000836;28;20418;-80
2023/07/09 10:28:04;;;;;;;3.33;1.80;;;;;;;;;;5004352;28;20037;-78
2023/07/09 10:30:36;;;;;;;2.78;2.08;;;;;;;;;;5006272;28;20107;-81
2023/07/09 10:33:13;;;;;;;20.13;2.60;;;;;;;;;;4986769;28;22373;-80
2023/07/09 10:36:02;;;;;;;3.88;1.50;;;;;;;;;;5003299;28;20135;-82
2023/07/09 10:38:34;;;;;;;4.65;1.95;;;;;;;;;;4976520;28;20052;-81
2023/07/09 10:41:03;;;;;;;3.80;2.70;;;;;;;;;;5001881;28;20037;-79
2023/07/09 10:43:42;;;;;;;2.67;2.08;;;;;;;;;;5005014;28;20553;-85
2023/07/09 10:46:12;;;;;;;4.07;1.85;;;;;;;;;;5001729;28;20089;-79
2023/07/09 10:48:41;;;;;;;5.53;1.70;;;;;;;;;;5003441;28;20053;-78
2023/07/09 10:51:23;;;;;;;10.73;2.20;;;;;;;;;;5003618;28;20119;-81
2023/07/09 10:53:52;;;;;;;3.75;2.05;;;;;;;;;;5002782;28;20934;-79
2023/07/09 10:56:21;;;;;;;2.72;1.85;;;;;;;;;;4994204;28;20037;-77
2023/07/09 10:58:51;;;;;;;4.72;2.70;;;;;;;;;;5005983;28;20132;-78
2023/07/09 11:01:20;;;;;;;4.05;2.05;;;;;;;;;;5003753;28;20509;-78
2023/07/09 11:03:51;;;;;;;2.15;1.95;;;;;;;;;;5004873;28;21992;-78
2023/07/09 11:06:22;;;;;;;2.63;2.22;;;;;;;;;;4988744;28;20049;-81
2023/07/09 11:08:51;;;;;;;6.60;2.00;;;;;;;;;;5006522;28;20043;-81
2023/07/09 11:11:34;;;;;;;3.83;2.47;;;;;;;;;;5000451;28;20040;-79
2023/07/09 11:14:07;;;;;;;2.28;2.08;;;;;;;;;;5003165;28;20140;-79
2023/07/09 11:16:36;;;;;;;2.85;1.60;;;;;;;;;;4985226;28;20038;-80
2023/07/09 11:19:03;;;;;;;1.75;1.65;;;;;;;;;;5006829;28;20041;-79
2023/07/09 11:21:30;;;;;;;3.63;1.80;;;;;;;;;;5008955;28;20622;-78
2023/07/09 11:23:59;;;;;;;3.15;2.22;;;;;;;;;;5009314;28;20033;-79
2023/07/09 11:26:25;;;;;;;5.00;1.88;;;;;;;;;;5007042;28;20039;-79
2023/07/09 11:28:56;;;;;;;2.65;1.80;;;;;;;;;;4982436;28;20343;-80
2023/07/09 11:31:22;;;;;;;3.77;1.80;;;;;;;;;;5002695;28;20053;-77
2023/07/09 11:33:50;;;;;;;2.65;2.28;;;;;;;;;;4985968;28;20065;-76
2023/07/09 11:36:26;;;;;;;5.95;1.90;;;;;;;;;;5007115;28;20216;-75
2023/07/09 11:38:52;;;;;;;4.13;2.10;;;;;;;;;;5008577;28;20041;-76
2023/07/09 11:41:28;;;;;;;1.98;1.67;;;;;;;;;;5004904;28;20079;-76
2023/07/09 11:44:01;;;;;;;1.95;1.85;;;;;;;;;;4990269;28;20959;-76
2023/07/09 11:46:27;;;;;;;5.43;2.45;;;;;;;;;;5005428;28;20064;-76
2023/07/09 11:48:55;;;;;;;6.55;2.35;;;;;;;;;;5000845;28;20050;-76
2023/07/09 11:51:23;;;;;;;2.20;2.00;;;;;;;;;;5006989;28;20498;-75
2023/07/09 11:53:53;;;;;;;2.95;2.10;;;;;;;;;;5008582;28;20041;-74
2023/07/09 11:56:21;;;;;;;2.17;1.63;;;;;;;;;;5006766;28;20104;-74
2023/07/09 11:58:55;;;;;;;3.25;1.80;;;;;;;;;;5005578;28;20030;-75
2023/07/09 12:01:22;;;;;;;3.63;2.03;;;;;;;;;;4982089;28;20084;-74
2023/07/09 12:03:50;;;;;;;2.58;1.90;;;;;;;;;;4975422;28;20049;-76
2023/07/09 12:06:22;;;;;;;2.78;1.88;;;;;;;;;;4984184;28;20046;-74
2023/07/09 12:08:48;;;;;;;;;;;;;;;;;;5002041;28;20041;-75
2023/07/09 12:11:28;;;;;;;4.25;1.60;;;;;;;;;;4998241;28;19921;-74
2023/07/09 12:13:54;;;;;;;2.97;1.80;;;;;;;;;;5001498;28;20043;-75
2023/07/09 12:16:23;;;;;;;4.22;1.83;;;;;;;;;;5001625;28;20030;-75
2023/07/09 12:18:49;;;;;;;4.40;2.25;;;;;;;;;;5001404;28;20069;-75
2023/07/09 12:21:15;;;;;;;3.17;1.75;;;;;;;;;;5000606;28;21345;-75
2023/07/09 12:23:41;;;;;;;4.63;2.10;;;;;;;;;;5002638;28;20029;-76
2023/07/09 12:26:12;;;;;;;2.83;2.13;;;;;;;;;;4997970;28;20513;-77
2023/07/09 12:28:38;;;;;;;3.13;2.00;;;;;;;;;;4983160;28;20178;-75
2023/07/09 12:31:04;;;;;;;3.90;1.83;;;;;;;;;;4999047;28;20595;-76
2023/07/09 12:33:30;;;;;;;4.55;1.80;;;;;;;;;;5005610;28;20084;-76
2023/07/09 12:36:00;;;;;;;3.10;2.03;;;;;;;;;;4993241;28;20100;-76
2023/07/09 12:38:28;;;;;;;2.90;2.55;;;;;;;;;;5011047;28;20066;-75
2023/07/09 12:40:54;;;;;;;14.32;2.65;;;;;;;;;;5007776;28;20132;-76
2023/07/09 12:43:25;;;;;;;4.65;1.88;;;;;;;;;;5009360;28;20042;-75
2023/07/09 12:45:51;;;;;;;12.27;1.80;;;;;;;;;;5007784;28;20053;-76
2023/07/09 12:48:18;;;;;;;3.67;2.00;;;;;;;;;;4997955;28;20052;-76
2023/07/09 12:50:49;;;;;;;3.53;1.85;;;;;;;;;;5006523;28;20064;-75
2023/07/09 12:53:17;;;;;;;2.28;1.90;;;;;;;;;;5006361;28;20046;-76
2023/07/09 12:55:44;;;;;;;2.42;1.88;;;;;;;;;;5005749;28;20045;-77
2023/07/09 12:58:14;;;;;;;2.95;2.17;;;;;;;;;;5009186;28;21130;-76
2023/07/09 13:00:40;;;;;;;15.73;2.60;;;;;;;;;;4999544;28;20534;-76
2023/07/09 13:03:13;;;;;;;2.20;1.80;;;;;;;;;;4998707;28;21562;-76
2023/07/09 13:05:39;;;;;;;2.92;1.70;;;;;;;;;;5003977;28;20069;-75
2023/07/09 13:08:06;;;;;;;2.50;2.00;;;;;;;;;;5010137;28;20124;-75
2023/07/09 13:10:32;;;;;;;2.10;1.90;;;;;;;;;;4988399;28;20052;-75
2023/07/09 13:13:02;;;;;;;2.00;1.80;;;;;;;;;;4993481;28;20033;-74
2023/07/09 13:15:29;;;;;;;4.18;1.90;;;;;;;;;;5007344;28;20092;-76
2023/07/09 13:18:00;;;;;;;2.50;1.95;;;;;;;;;;5010093;28;20041;-76
2023/07/09 13:20:25;;;;;;;2.65;2.00;;;;;;;;;;5009304;28;20144;-76
2023/07/09 13:22:51;;;;;;;2.13;1.92;;;;;;;;;;5007432;28;21114;-76
2023/07/09 13:25:17;;;;;;;3.50;2.05;;;;;;;;;;5003443;28;20099;-76
2023/07/09 13:27:45;;;;;;;8.80;2.00;;;;;;;;;;5003653;28;20516;-75
2023/07/09 13:30:12;;;;;;;5.15;2.03;;;;;;;;;;5007821;28;20033;-75
2023/07/09 13:32:38;;;;;;;2.35;1.92;;;;;;;;;;4992372;28;20045;-76
2023/07/09 13:35:13;;;;;;;2.33;1.98;;;;;;;;;;5004640;28;20056;-76
2023/07/09 13:37:39;;;;;;;5.50;2.08;;;;;;;;;;5006323;28;20108;-75
2023/07/09 13:40:05;;;;;;;2.65;1.95;;;;;;;;;;4997609;28;20146;-75
2023/07/09 13:42:31;;;;;;;5.45;1.98;;;;;;;;;;5002186;28;20026;-75
2023/07/09 13:44:57;;;;;;;2.30;1.80;;;;;;;;;;5000931;28;20838;-75
2023/07/09 13:47:23;;;;;;;3.65;1.98;;;;;;;;;;5002404;28;20052;-74
2023/07/09 13:49:49;;;;;;;2.97;1.90;;;;;;;;;;4991633;28;20032;-75
2023/07/09 13:52:17;;;;;;;2.88;1.80;;;;;;;;;;5007551;28;20033;-74
2023/07/09 13:54:47;;;;;;;4.05;2.10;;;;;;;;;;4994580;28;20128;-74
2023/07/09 13:57:14;;;;;;;2.90;2.00;;;;;;;;;;5006498;28;20029;-74
2023/07/09 13:59:40;;;;;;;6.20;1.83;;;;;;;;;;5005849;28;20149;-74
2023/07/09 14:02:17;;;;;;;1.90;1.80;;;;;;;;;;5006419;28;20090;-75
2023/07/09 14:04:43;;;;;;;7.90;2.00;;;;;;;;;;5005937;28;20042;-80
2023/07/09 14:07:20;;;;;;;3.88;1.77;;;;;;;;;;4991906;28;20052;-75
2023/07/09 14:09:46;;;;;;;4.18;1.73;;;;;;;;;;5008003;28;20036;-77
2023/07/09 14:12:12;;;;;;;7.00;2.40;;;;;;;;;;4993162;28;20091;-77
2023/07/09 14:14:38;;;;;;;5.68;2.10;;;;;;;;;;5005636;28;20045;-76
2023/07/09 14:17:04;;;;;;;2.20;2.00;;;;;;;;;;4988768;28;20048;-76
2023/07/09 14:19:30;;;;;;;8.27;2.15;;;;;;;;;;5000864;28;20065;-76
2023/07/09 14:21:56;;;;;;;3.10;1.92;;;;;;;;;;5006509;28;20460;-76
2023/07/09 14:24:28;;;;;;;2.92;1.77;;;;;;;;;;4993183;28;20585;-75
2023/07/09 14:26:55;;;;;;;5.03;1.92;;;;;;;;;;5002837;28;20040;-75